createdAt,value
2018-07-31T00:00:18.748Z,17.80
2018-07-31T00:01:18.711Z,17.77
2018-07-31T00:02:18.782Z,17.76
2018-07-31T00:03:18.716Z,17.75
2018-07-31T00:04:18.732Z,17.71
2018-07-31T00:05:18.714Z,17.69
2018-07-31T00:06:18.712Z,17.71
2018-07-31T00:07:18.745Z,17.69
2018-07-31T00:08:18.701Z,17.68
2018-07-31T00:09:18.777Z,17.65
2018-07-31T00:10:18.775Z,17.61
2018-07-31T00:11:18.781Z,17.61
2018-07-31T00:12:18.737Z,17.58
2018-07-31T00:13:18.780Z,17.54
2018-07-31T00:14:18.781Z,17.53
2018-07-31T00:15:18.783Z,17.51
2018-07-31T00:16:18.663Z,17.53
2018-07-31T00:17:18.707Z,17.50
2018-07-31T00:18:18.696Z,17.47
2018-07-31T00:19:18.716Z,17.47
2018-07-31T00:20:18.668Z,17.47
2018-07-31T00:21:18.709Z,17.50
2018-07-31T00:22:18.717Z,17.50
2018-07-31T00:23:18.718Z,17.49
2018-07-31T00:24:18.785Z,17.50
2018-07-31T00:25:18.792Z,17.50
2018-07-31T00:26:18.752Z,17.50
2018-07-31T00:27:18.790Z,17.49
2018-07-31T00:28:18.728Z,17.47
2018-07-31T00:29:18.730Z,17.46
2018-07-31T00:30:18.733Z,17.46
2018-07-31T00:31:18.738Z,17.46
2018-07-31T00:32:18.733Z,17.46
2018-07-31T00:33:18.805Z,17.44
2018-07-31T00:34:18.738Z,17.43
2018-07-31T00:35:18.819Z,17.42
2018-07-31T00:36:18.755Z,17.43
2018-07-31T00:37:18.804Z,17.40
2018-07-31T00:38:18.809Z,17.42
2018-07-31T00:39:18.708Z,17.40
2018-07-31T00:40:18.728Z,17.40
2018-07-31T00:41:18.802Z,17.39
2018-07-31T00:42:18.811Z,17.37
2018-07-31T00:43:18.844Z,17.35
2018-07-31T00:44:18.756Z,17.33
2018-07-31T00:45:18.770Z,17.32
2018-07-31T00:46:18.783Z,17.32
2018-07-31T00:47:18.764Z,17.31
2018-07-31T00:48:18.709Z,17.28
2018-07-31T00:49:18.729Z,17.28
2018-07-31T00:50:18.809Z,17.26
2018-07-31T00:51:18.807Z,17.24
2018-07-31T00:52:18.692Z,17.24
2018-07-31T00:53:18.806Z,17.21
2018-07-31T00:54:18.690Z,17.20
2018-07-31T00:55:18.808Z,17.16
2018-07-31T00:56:18.724Z,17.14
2018-07-31T00:57:18.720Z,17.12
2018-07-31T00:58:18.768Z,17.12
2018-07-31T00:59:18.822Z,17.12
2018-07-31T01:00:18.752Z,17.13
2018-07-31T01:01:18.850Z,17.10
2018-07-31T01:02:18.824Z,17.10
2018-07-31T01:03:18.796Z,17.08
2018-07-31T01:04:18.824Z,17.05
2018-07-31T01:05:18.753Z,17.03
2018-07-31T01:06:18.894Z,17.02
2018-07-31T01:07:18.757Z,17.12
2018-07-31T01:08:18.730Z,17.22
2018-07-31T01:09:18.853Z,17.25
2018-07-31T01:10:18.764Z,17.26
2018-07-31T01:11:18.824Z,17.25
2018-07-31T01:12:18.847Z,17.25
2018-07-31T01:13:18.849Z,17.24
2018-07-31T01:14:18.736Z,17.25
2018-07-31T01:15:18.861Z,17.24
2018-07-31T01:16:18.851Z,17.26
2018-07-31T01:17:18.856Z,17.25
2018-07-31T01:18:18.791Z,17.22
2018-07-31T01:19:18.829Z,17.22
2018-07-31T01:20:18.795Z,17.21
2018-07-31T01:21:18.849Z,17.18
2018-07-31T01:22:18.860Z,17.18
2018-07-31T01:23:18.756Z,17.18
2018-07-31T01:24:18.776Z,17.14
2018-07-31T01:25:18.811Z,17.12
2018-07-31T01:26:18.857Z,17.12
2018-07-31T01:27:18.768Z,17.14
2018-07-31T01:28:18.844Z,17.13
2018-07-31T01:29:18.852Z,17.14
2018-07-31T01:30:18.770Z,17.12
2018-07-31T01:31:18.778Z,17.13
2018-07-31T01:32:18.845Z,17.10
2018-07-31T01:33:18.846Z,17.06
2018-07-31T01:34:18.803Z,17.02
2018-07-31T01:35:18.881Z,16.99
2018-07-31T01:36:18.861Z,16.97
2018-07-31T01:37:18.905Z,16.94
2018-07-31T01:38:18.770Z,16.92
2018-07-31T01:39:18.763Z,16.95
2018-07-31T01:40:18.844Z,16.91
2018-07-31T01:41:18.840Z,16.91
2018-07-31T01:42:18.755Z,16.88
2018-07-31T01:43:18.756Z,16.85
2018-07-31T01:44:18.752Z,16.83
2018-07-31T01:45:18.775Z,16.81
2018-07-31T01:46:18.843Z,16.87
2018-07-31T01:47:18.848Z,16.90
2018-07-31T01:48:18.810Z,16.87
2018-07-31T01:49:18.831Z,16.87
2018-07-31T01:50:18.869Z,16.88
2018-07-31T01:51:18.856Z,16.88
2018-07-31T01:52:18.855Z,16.84
2018-07-31T01:53:18.757Z,16.84
2018-07-31T01:54:18.871Z,16.84
2018-07-31T01:55:18.879Z,16.81
2018-07-31T01:56:18.798Z,16.79
2018-07-31T01:57:18.856Z,16.79
2018-07-31T01:58:18.731Z,16.76
2018-07-31T01:59:18.730Z,16.73
2018-07-31T02:00:18.801Z,16.72
2018-07-31T02:01:18.730Z,16.69
2018-07-31T02:02:18.742Z,16.68
2018-07-31T02:03:18.854Z,16.66
2018-07-31T02:04:18.731Z,16.63
2018-07-31T02:05:18.767Z,16.61
2018-07-31T02:06:18.741Z,16.72
2018-07-31T02:07:18.795Z,16.77
2018-07-31T02:08:18.835Z,16.77
2018-07-31T02:09:18.790Z,16.77
2018-07-31T02:10:18.891Z,16.85
2018-07-31T02:11:18.841Z,16.85
2018-07-31T02:12:18.869Z,16.83
2018-07-31T02:13:18.787Z,16.80
2018-07-31T02:14:18.899Z,16.76
2018-07-31T02:15:18.839Z,16.74
2018-07-31T02:16:18.901Z,16.72
2018-07-31T02:17:18.857Z,16.73
2018-07-31T02:18:18.904Z,16.76
2018-07-31T02:19:18.819Z,16.77
2018-07-31T02:20:18.780Z,16.81
2018-07-31T02:21:18.798Z,16.77
2018-07-31T02:22:18.779Z,16.73
2018-07-31T02:23:18.917Z,16.72
2018-07-31T02:24:18.915Z,16.73
2018-07-31T02:25:18.896Z,16.73
2018-07-31T02:26:18.877Z,16.70
2018-07-31T02:27:18.796Z,16.70
2018-07-31T02:28:19.001Z,16.65
2018-07-31T02:29:18.906Z,16.61
2018-07-31T02:30:18.799Z,16.58
2018-07-31T02:31:18.852Z,16.57
2018-07-31T02:32:18.904Z,16.59
2018-07-31T02:33:18.804Z,16.59
2018-07-31T02:34:18.902Z,16.58
2018-07-31T02:35:18.855Z,16.58
2018-07-31T02:36:18.920Z,16.57
2018-07-31T02:37:18.844Z,16.57
2018-07-31T02:38:18.810Z,16.55
2018-07-31T02:39:18.866Z,16.54
2018-07-31T02:40:18.852Z,16.51
2018-07-31T02:41:18.887Z,16.50
2018-07-31T02:42:18.862Z,16.47
2018-07-31T02:43:18.853Z,16.47
2018-07-31T02:44:18.932Z,16.44
2018-07-31T02:45:18.893Z,16.44
2018-07-31T02:46:18.927Z,16.43
2018-07-31T02:47:18.829Z,16.41
2018-07-31T02:48:18.816Z,16.41
2018-07-31T02:49:18.841Z,16.41
2018-07-31T02:50:18.872Z,16.39
2018-07-31T02:51:18.867Z,16.36
2018-07-31T02:52:18.936Z,16.39
2018-07-31T02:53:18.877Z,16.38
2018-07-31T02:54:18.879Z,16.39
2018-07-31T02:55:18.927Z,16.38
2018-07-31T02:56:18.936Z,16.36
2018-07-31T02:57:18.939Z,16.38
2018-07-31T02:58:18.892Z,16.38
2018-07-31T02:59:18.901Z,16.35
2018-07-31T03:00:18.863Z,16.33
2018-07-31T03:01:18.888Z,16.31
2018-07-31T03:02:18.869Z,16.31
2018-07-31T03:03:18.991Z,16.32
2018-07-31T03:04:18.884Z,16.28
2018-07-31T03:05:18.923Z,16.27
2018-07-31T03:06:18.932Z,16.22
2018-07-31T03:07:18.870Z,16.24
2018-07-31T03:08:19.099Z,16.31
2018-07-31T03:09:18.840Z,16.33
2018-07-31T03:10:18.850Z,16.35
2018-07-31T03:11:18.843Z,16.36
2018-07-31T03:12:18.861Z,16.41
2018-07-31T03:13:18.842Z,16.44
2018-07-31T03:14:18.844Z,16.47
2018-07-31T03:15:18.914Z,16.50
2018-07-31T03:16:18.878Z,16.51
2018-07-31T03:17:18.920Z,16.52
2018-07-31T03:18:18.854Z,16.55
2018-07-31T03:19:18.934Z,16.55
2018-07-31T03:20:18.955Z,16.54
2018-07-31T03:21:18.857Z,16.54
2018-07-31T03:22:18.885Z,16.50
2018-07-31T03:23:18.951Z,16.51
2018-07-31T03:24:18.899Z,16.48
2018-07-31T03:25:18.922Z,16.50
2018-07-31T03:26:18.925Z,16.48
2018-07-31T03:27:18.843Z,16.47
2018-07-31T03:28:18.890Z,16.44
2018-07-31T03:29:18.828Z,16.41
2018-07-31T03:30:18.966Z,16.38
2018-07-31T03:31:18.925Z,16.33
2018-07-31T03:32:18.864Z,16.31
2018-07-31T03:33:18.947Z,16.28
2018-07-31T03:34:18.845Z,16.27
2018-07-31T03:35:19.000Z,16.27
2018-07-31T03:36:18.956Z,16.28
2018-07-31T03:37:18.926Z,16.28
2018-07-31T03:38:18.964Z,16.28
2018-07-31T03:39:18.827Z,16.31
2018-07-31T03:40:18.832Z,16.31
2018-07-31T03:41:18.905Z,16.31
2018-07-31T03:42:18.977Z,16.31
2018-07-31T03:43:18.889Z,16.28
2018-07-31T03:44:18.950Z,16.25
2018-07-31T03:45:18.921Z,16.22
2018-07-31T03:46:18.952Z,16.21
2018-07-31T03:47:18.890Z,16.20
2018-07-31T03:48:18.936Z,16.18
2018-07-31T03:49:18.929Z,16.16
2018-07-31T03:50:18.887Z,16.16
2018-07-31T03:51:18.862Z,16.16
2018-07-31T03:52:18.933Z,16.16
2018-07-31T03:53:18.964Z,16.16
2018-07-31T03:54:18.846Z,16.17
2018-07-31T03:55:18.845Z,16.16
2018-07-31T03:56:18.985Z,16.16
2018-07-31T03:57:18.812Z,16.16
2018-07-31T03:58:18.897Z,16.16
2018-07-31T03:59:18.862Z,16.14
2018-07-31T04:00:18.832Z,16.14
2018-07-31T04:01:18.813Z,16.14
2018-07-31T04:02:18.931Z,16.17
2018-07-31T04:03:18.865Z,16.16
2018-07-31T04:04:18.938Z,16.14
2018-07-31T04:05:18.966Z,16.13
2018-07-31T04:06:18.866Z,16.13
2018-07-31T04:07:18.854Z,16.09
2018-07-31T04:08:18.899Z,16.09
2018-07-31T04:09:18.902Z,16.09
2018-07-31T04:10:18.945Z,16.07
2018-07-31T04:11:18.903Z,16.13
2018-07-31T04:12:18.919Z,16.18
2018-07-31T04:13:18.946Z,16.21
2018-07-31T04:14:18.922Z,16.22
2018-07-31T04:15:18.950Z,16.24
2018-07-31T04:16:18.987Z,16.22
2018-07-31T04:17:18.987Z,16.21
2018-07-31T04:18:18.978Z,16.20
2018-07-31T04:19:18.860Z,16.18
2018-07-31T04:20:18.949Z,16.17
2018-07-31T04:21:18.862Z,16.16
2018-07-31T04:22:18.894Z,16.16
2018-07-31T04:23:18.953Z,16.16
2018-07-31T04:24:18.942Z,16.17
2018-07-31T04:25:18.894Z,16.16
2018-07-31T04:26:18.871Z,16.17
2018-07-31T04:27:18.849Z,16.18
2018-07-31T04:28:18.956Z,16.18
2018-07-31T04:29:18.963Z,16.18
2018-07-31T04:30:18.905Z,16.18
2018-07-31T04:31:18.979Z,16.18
2018-07-31T04:32:18.960Z,16.18
2018-07-31T04:33:18.914Z,16.22
2018-07-31T04:34:18.978Z,16.25
2018-07-31T04:35:18.916Z,16.24
2018-07-31T04:36:18.960Z,16.22
2018-07-31T04:37:18.902Z,16.21
2018-07-31T04:38:18.972Z,16.21
2018-07-31T04:39:18.948Z,16.22
2018-07-31T04:40:18.845Z,16.21
2018-07-31T04:41:19.060Z,16.21
2018-07-31T04:42:18.950Z,16.21
2018-07-31T04:43:18.917Z,16.20
2018-07-31T04:44:18.841Z,16.20
2018-07-31T04:45:18.837Z,16.20
2018-07-31T04:46:18.924Z,16.21
2018-07-31T04:47:18.921Z,16.18
2018-07-31T04:48:18.845Z,16.22
2018-07-31T04:49:19.001Z,16.38
2018-07-31T04:50:18.950Z,16.54
2018-07-31T04:51:18.953Z,16.59
2018-07-31T04:52:18.945Z,16.61
2018-07-31T04:53:18.936Z,16.62
2018-07-31T04:54:18.937Z,16.65
2018-07-31T04:55:18.881Z,16.68
2018-07-31T04:56:18.902Z,16.68
2018-07-31T04:57:18.971Z,16.69
2018-07-31T04:58:18.984Z,16.72
2018-07-31T04:59:18.947Z,16.73
2018-07-31T05:00:19.024Z,16.76
2018-07-31T05:01:19.011Z,16.80
2018-07-31T05:02:19.025Z,16.83
2018-07-31T05:03:18.983Z,16.83
2018-07-31T05:04:18.989Z,16.84
2018-07-31T05:05:18.985Z,16.84
2018-07-31T05:06:18.893Z,16.87
2018-07-31T05:07:18.953Z,16.90
2018-07-31T05:08:18.898Z,16.91
2018-07-31T05:09:18.989Z,16.95
2018-07-31T05:10:18.989Z,16.99
2018-07-31T05:11:18.992Z,17.02
2018-07-31T05:12:18.926Z,17.09
2018-07-31T05:13:19.030Z,17.13
2018-07-31T05:14:18.997Z,17.21
2018-07-31T05:15:18.929Z,17.25
2018-07-31T05:16:18.929Z,17.29
2018-07-31T05:17:18.997Z,17.31
2018-07-31T05:18:18.980Z,17.36
2018-07-31T05:19:18.937Z,17.39
2018-07-31T05:20:19.034Z,17.43
2018-07-31T05:21:18.962Z,17.44
2018-07-31T05:22:18.965Z,17.49
2018-07-31T05:23:18.975Z,17.54
2018-07-31T05:24:19.003Z,17.58
2018-07-31T05:25:18.994Z,17.62
2018-07-31T05:26:19.001Z,17.68
2018-07-31T05:27:18.976Z,17.75
2018-07-31T05:28:19.038Z,17.80
2018-07-31T05:29:19.043Z,17.88
2018-07-31T05:30:18.972Z,17.98
2018-07-31T05:31:18.976Z,18.10
2018-07-31T05:32:18.946Z,18.20
2018-07-31T05:33:19.033Z,18.31
2018-07-31T05:34:19.040Z,18.41
2018-07-31T05:35:18.969Z,18.48
2018-07-31T05:36:18.970Z,18.55
2018-07-31T05:37:19.048Z,18.62
2018-07-31T05:38:18.968Z,18.68
2018-07-31T05:39:18.950Z,18.75
2018-07-31T05:40:18.987Z,18.80
2018-07-31T05:41:19.025Z,18.87
2018-07-31T05:42:18.984Z,18.94
2018-07-31T05:43:18.971Z,19.01
2018-07-31T05:44:19.039Z,19.06
2018-07-31T05:45:19.038Z,19.16
2018-07-31T05:46:19.100Z,19.25
2018-07-31T05:47:18.989Z,19.35
2018-07-31T05:48:19.056Z,19.42
2018-07-31T05:49:19.042Z,19.46
2018-07-31T05:50:19.045Z,19.51
2018-07-31T05:51:18.976Z,19.57
2018-07-31T05:52:19.005Z,19.61
2018-07-31T05:53:19.108Z,19.66
2018-07-31T05:54:19.063Z,19.80
2018-07-31T05:55:18.925Z,19.95
2018-07-31T05:56:19.063Z,20.13
2018-07-31T05:57:18.994Z,20.35
2018-07-31T05:58:19.065Z,20.60
2018-07-31T05:59:18.947Z,20.83
2018-07-31T06:00:19.026Z,21.02
2018-07-31T06:01:19.029Z,21.14
2018-07-31T06:02:18.988Z,21.40
2018-07-31T06:03:18.999Z,21.72
2018-07-31T06:04:19.002Z,21.96
2018-07-31T06:05:18.968Z,22.09
2018-07-31T06:06:18.926Z,22.13
2018-07-31T06:07:18.933Z,22.24
2018-07-31T06:08:19.045Z,22.39
2018-07-31T06:09:18.958Z,22.59
2018-07-31T06:10:18.956Z,22.70
2018-07-31T06:11:18.976Z,22.93
2018-07-31T06:12:19.022Z,23.06
2018-07-31T06:13:18.927Z,23.13
2018-07-31T06:14:18.903Z,23.06
2018-07-31T06:15:19.049Z,22.97
2018-07-31T06:16:18.973Z,23.00
2018-07-31T06:17:18.971Z,22.94
2018-07-31T06:18:18.995Z,23.01
2018-07-31T06:19:19.073Z,23.08
2018-07-31T06:20:19.064Z,23.24
2018-07-31T06:21:19.035Z,23.45
2018-07-31T06:22:19.005Z,23.60
2018-07-31T06:23:19.043Z,23.67
2018-07-31T06:24:19.011Z,23.69
2018-07-31T06:25:18.875Z,23.90
2018-07-31T06:26:19.077Z,23.94
2018-07-31T06:27:19.065Z,24.05
2018-07-31T06:28:19.024Z,24.23
2018-07-31T06:29:19.066Z,24.40
2018-07-31T06:30:19.027Z,24.61
2018-07-31T06:31:19.104Z,24.75
2018-07-31T06:32:19.061Z,24.72
2018-07-31T06:33:19.023Z,24.72
2018-07-31T06:34:19.011Z,24.79
2018-07-31T06:35:19.082Z,24.83
2018-07-31T06:36:19.069Z,24.95
2018-07-31T06:37:19.080Z,25.05
2018-07-31T06:38:19.038Z,25.15
2018-07-31T06:39:19.049Z,25.09
2018-07-31T06:40:19.097Z,25.15
2018-07-31T06:41:18.993Z,25.27
2018-07-31T06:42:18.992Z,25.20
2018-07-31T06:43:19.053Z,25.24
2018-07-31T06:44:19.055Z,25.22
2018-07-31T06:45:19.058Z,25.24
2018-07-31T06:46:19.035Z,25.34
2018-07-31T06:47:19.053Z,25.38
2018-07-31T06:48:18.991Z,25.44
2018-07-31T06:49:19.099Z,25.53
2018-07-31T06:50:19.060Z,25.67
2018-07-31T06:51:18.999Z,25.75
2018-07-31T06:52:19.061Z,25.88
2018-07-31T06:53:18.998Z,25.86
2018-07-31T06:54:19.064Z,25.89
2018-07-31T06:55:18.997Z,25.82
2018-07-31T06:56:19.067Z,25.75
2018-07-31T06:57:18.998Z,25.80
2018-07-31T06:58:19.062Z,25.92
2018-07-31T06:59:18.973Z,26.07
2018-07-31T07:00:19.109Z,26.03
2018-07-31T07:01:19.031Z,25.93
2018-07-31T07:02:19.033Z,26.06
2018-07-31T07:03:19.039Z,26.08
2018-07-31T07:04:18.968Z,26.14
2018-07-31T07:05:19.038Z,26.22
2018-07-31T07:06:19.037Z,26.25
2018-07-31T07:07:19.074Z,26.30
2018-07-31T07:08:19.028Z,26.36
2018-07-31T07:09:19.117Z,26.47
2018-07-31T07:10:19.107Z,26.43
2018-07-31T07:11:18.980Z,26.48
2018-07-31T07:12:18.986Z,26.59
2018-07-31T07:13:19.103Z,26.62
2018-07-31T07:14:19.048Z,26.64
2018-07-31T07:15:19.105Z,26.68
2018-07-31T07:16:19.048Z,26.75
2018-07-31T07:17:19.048Z,26.79
2018-07-31T07:18:19.049Z,26.84
2018-07-31T07:19:19.080Z,26.84
2018-07-31T07:20:18.979Z,26.92
2018-07-31T07:21:19.017Z,26.99
2018-07-31T07:22:19.085Z,27.00
2018-07-31T07:23:18.987Z,27.08
2018-07-31T07:24:19.007Z,27.21
2018-07-31T07:25:19.116Z,27.30
2018-07-31T07:26:19.103Z,27.36
2018-07-31T07:27:19.124Z,27.23
2018-07-31T07:28:19.085Z,27.30
2018-07-31T07:29:19.036Z,27.43
2018-07-31T07:30:19.041Z,27.58
2018-07-31T07:31:19.023Z,27.68
2018-07-31T07:32:18.983Z,27.74
2018-07-31T07:33:18.980Z,27.82
2018-07-31T07:34:19.022Z,27.95
2018-07-31T07:35:19.029Z,27.95
2018-07-31T07:36:18.953Z,28.00
2018-07-31T07:37:19.079Z,27.86
2018-07-31T07:38:19.053Z,27.95
2018-07-31T07:39:19.044Z,28.06
2018-07-31T07:40:19.023Z,28.32
2018-07-31T07:41:19.083Z,28.39
2018-07-31T07:42:19.084Z,28.54
2018-07-31T07:43:19.087Z,28.47
2018-07-31T07:44:19.045Z,28.60
2018-07-31T07:45:19.057Z,28.58
2018-07-31T07:46:19.046Z,28.64
2018-07-31T07:47:18.967Z,28.71
2018-07-31T07:48:19.122Z,28.97
2018-07-31T07:49:19.100Z,29.14
2018-07-31T07:50:19.034Z,29.16
2018-07-31T07:51:19.034Z,29.18
2018-07-31T07:52:19.030Z,29.18
2018-07-31T07:53:19.082Z,29.27
2018-07-31T07:54:19.177Z,29.34
2018-07-31T07:55:19.035Z,29.44
2018-07-31T07:56:19.042Z,29.47
2018-07-31T07:57:19.105Z,29.51
2018-07-31T07:58:19.040Z,29.43
2018-07-31T07:59:19.039Z,29.59
2018-07-31T08:00:19.106Z,29.68
2018-07-31T08:01:19.041Z,29.48
2018-07-31T08:02:19.109Z,29.47
2018-07-31T08:03:19.044Z,29.58
2018-07-31T08:04:19.046Z,29.61
2018-07-31T08:05:19.110Z,29.48
2018-07-31T08:06:19.110Z,29.29
2018-07-31T08:07:19.045Z,29.25
2018-07-31T08:08:19.046Z,29.37
2018-07-31T08:09:19.137Z,29.44
2018-07-31T08:10:19.150Z,29.69
2018-07-31T08:11:19.160Z,29.69
2018-07-31T08:12:19.140Z,29.84
2018-07-31T08:13:19.090Z,29.91
2018-07-31T08:14:19.086Z,30.12
2018-07-31T08:15:19.156Z,30.03
2018-07-31T08:16:19.116Z,29.92
2018-07-31T08:17:19.140Z,30.08
2018-07-31T08:18:19.088Z,30.15
2018-07-31T08:19:19.092Z,30.23
2018-07-31T08:20:19.237Z,30.23
2018-07-31T08:21:19.087Z,30.37
2018-07-31T08:22:19.132Z,30.27
2018-07-31T08:23:19.098Z,30.30
2018-07-31T08:24:19.043Z,30.48
2018-07-31T08:25:19.153Z,30.79
2018-07-31T08:26:19.150Z,31.08
2018-07-31T08:27:19.126Z,31.26
2018-07-31T08:28:19.102Z,31.40
2018-07-31T08:29:19.162Z,31.46
2018-07-31T08:30:19.171Z,31.37
2018-07-31T08:31:19.030Z,31.48
2018-07-31T08:32:19.102Z,31.53
2018-07-31T08:33:19.033Z,31.60
2018-07-31T08:34:19.104Z,31.75
2018-07-31T08:35:19.162Z,32.04
2018-07-31T08:36:19.101Z,32.30
2018-07-31T08:37:19.104Z,32.51
2018-07-31T08:38:19.095Z,32.54
2018-07-31T08:39:19.124Z,32.54
2018-07-31T08:40:19.142Z,32.56
2018-07-31T08:41:19.164Z,32.48
2018-07-31T08:42:19.141Z,32.33
2018-07-31T08:43:19.137Z,32.33
2018-07-31T08:44:19.135Z,32.33
2018-07-31T08:45:19.077Z,32.56
2018-07-31T08:46:19.075Z,32.80
2018-07-31T08:47:19.143Z,32.73
2018-07-31T08:48:19.074Z,32.88
2018-07-31T08:49:19.141Z,32.95
2018-07-31T08:50:19.149Z,33.00
2018-07-31T08:51:19.299Z,33.06
2018-07-31T08:52:19.074Z,33.05
2018-07-31T08:53:19.154Z,33.07
2018-07-31T08:54:19.077Z,33.02
2018-07-31T08:55:19.081Z,33.06
2018-07-31T08:56:19.081Z,32.91
2018-07-31T08:57:19.148Z,32.87
2018-07-31T08:58:19.088Z,32.94
2018-07-31T08:59:19.082Z,33.13
2018-07-31T09:00:19.018Z,32.96
2018-07-31T09:01:19.142Z,33.06
2018-07-31T09:02:19.139Z,32.99
2018-07-31T09:03:19.058Z,33.05
2018-07-31T09:04:19.147Z,32.91
2018-07-31T09:05:19.136Z,32.82
2018-07-31T09:06:19.157Z,32.76
2018-07-31T09:07:19.017Z,32.51
2018-07-31T09:08:19.126Z,32.33
2018-07-31T09:09:19.177Z,32.36
2018-07-31T09:10:19.160Z,32.27
2018-07-31T09:11:19.137Z,32.27
2018-07-31T09:12:19.136Z,32.30
2018-07-31T09:13:19.067Z,32.32
2018-07-31T09:14:19.183Z,32.38
2018-07-31T09:15:19.112Z,32.37
2018-07-31T09:16:19.133Z,32.56
2018-07-31T09:17:19.125Z,32.56
2018-07-31T09:18:19.131Z,32.49
2018-07-31T09:19:19.165Z,32.49
2018-07-31T09:20:19.197Z,32.51
2018-07-31T09:21:19.187Z,32.66
2018-07-31T09:22:19.260Z,32.40
2018-07-31T09:23:19.205Z,32.18
2018-07-31T09:24:19.251Z,32.05
2018-07-31T09:25:19.065Z,31.98
2018-07-31T09:26:19.143Z,32.05
2018-07-31T09:27:19.149Z,31.94
2018-07-31T09:28:19.132Z,31.91
2018-07-31T09:29:19.185Z,32.01
2018-07-31T09:30:19.194Z,32.29
2018-07-31T09:31:19.036Z,32.58
2018-07-31T09:32:19.112Z,32.78
2018-07-31T09:33:19.159Z,32.95
2018-07-31T09:34:19.080Z,33.05
2018-07-31T09:35:19.160Z,33.22
2018-07-31T09:36:19.170Z,33.39
2018-07-31T09:37:19.084Z,33.63
2018-07-31T09:38:19.083Z,33.74
2018-07-31T09:39:19.171Z,33.85
2018-07-31T09:40:19.166Z,33.98
2018-07-31T09:41:19.115Z,34.02
2018-07-31T09:42:19.174Z,33.91
2018-07-31T09:43:19.069Z,33.87
2018-07-31T09:44:19.085Z,33.81
2018-07-31T09:45:19.048Z,34.03
2018-07-31T09:46:19.085Z,34.34
2018-07-31T09:47:19.247Z,34.67
2018-07-31T09:48:19.179Z,34.76
2018-07-31T09:49:19.102Z,34.97
2018-07-31T09:50:19.183Z,35.22
2018-07-31T09:51:19.120Z,35.37
2018-07-31T09:52:19.187Z,35.59
2018-07-31T09:53:19.224Z,35.70
2018-07-31T09:54:19.123Z,35.46
2018-07-31T09:55:19.187Z,35.67
2018-07-31T09:56:19.125Z,35.84
2018-07-31T09:57:19.189Z,36.00
2018-07-31T09:58:19.127Z,36.04
2018-07-31T09:59:19.189Z,36.11
2018-07-31T10:00:19.215Z,35.86
2018-07-31T10:01:19.193Z,35.68
2018-07-31T10:02:19.113Z,35.63
2018-07-31T10:03:19.154Z,35.15
2018-07-31T10:04:19.202Z,34.76
2018-07-31T10:05:19.199Z,34.70
2018-07-31T10:06:19.178Z,34.63
2018-07-31T10:07:19.167Z,34.68
2018-07-31T10:08:19.242Z,34.61
2018-07-31T10:09:19.211Z,34.61
2018-07-31T10:10:19.099Z,34.64
2018-07-31T10:11:19.062Z,34.63
2018-07-31T10:12:19.054Z,34.63
2018-07-31T10:13:19.101Z,34.64
2018-07-31T10:14:19.107Z,34.57
2018-07-31T10:15:19.145Z,34.56
2018-07-31T10:16:19.146Z,34.50
2018-07-31T10:17:19.102Z,34.45
2018-07-31T10:18:19.168Z,34.39
2018-07-31T10:19:19.055Z,34.24
2018-07-31T10:20:19.172Z,34.08
2018-07-31T10:21:19.208Z,34.10
2018-07-31T10:23:19.197Z,34.16
2018-07-31T10:24:19.111Z,34.38
2018-07-31T10:25:19.161Z,34.63
2018-07-31T10:26:19.165Z,34.87
2018-07-31T10:27:19.082Z,35.11
2018-07-31T10:28:19.081Z,35.48
2018-07-31T10:29:19.138Z,35.78
2018-07-31T10:30:19.100Z,35.85
2018-07-31T10:31:19.161Z,35.88
2018-07-31T10:32:19.206Z,35.96
2018-07-31T10:33:19.208Z,36.14
2018-07-31T10:34:19.211Z,36.26
2018-07-31T10:35:19.124Z,36.57
2018-07-31T10:36:19.201Z,36.87
2018-07-31T10:37:19.169Z,37.09
2018-07-31T10:38:19.121Z,37.21
2018-07-31T10:40:19.179Z,37.86
2018-07-31T10:41:19.176Z,38.06
2018-07-31T10:42:19.125Z,38.11
2018-07-31T10:43:19.215Z,38.15
2018-07-31T10:44:19.123Z,38.26
2018-07-31T10:45:19.216Z,38.28
2018-07-31T10:46:19.091Z,38.33
2018-07-31T10:47:19.144Z,38.51
2018-07-31T10:48:19.125Z,37.98
2018-07-31T10:49:19.180Z,37.09
2018-07-31T10:50:19.260Z,36.44
2018-07-31T10:51:19.185Z,36.10
2018-07-31T10:52:19.263Z,35.78
2018-07-31T10:53:19.227Z,35.59
2018-07-31T10:54:19.208Z,35.74
2018-07-31T10:55:19.253Z,35.75
2018-07-31T10:56:19.234Z,35.92
2018-07-31T10:57:19.156Z,36.24
2018-07-31T10:58:19.270Z,36.41
2018-07-31T10:59:19.173Z,36.77
2018-07-31T11:00:19.233Z,36.86
2018-07-31T11:01:19.233Z,36.48
2018-07-31T11:02:19.233Z,36.30
2018-07-31T11:03:19.205Z,36.29
2018-07-31T11:04:19.313Z,36.19
2018-07-31T11:05:19.234Z,35.93
2018-07-31T11:06:19.359Z,35.84
2018-07-31T11:07:19.203Z,35.79
2018-07-31T11:08:19.257Z,35.70
2018-07-31T11:09:19.272Z,35.42
2018-07-31T11:10:19.250Z,35.11
2018-07-31T11:11:19.178Z,34.97
2018-07-31T11:12:19.242Z,34.99
2018-07-31T11:13:19.191Z,35.02
2018-07-31T11:14:19.129Z,35.08
2018-07-31T11:15:19.276Z,34.99
2018-07-31T11:16:19.174Z,34.86
2018-07-31T11:17:19.242Z,34.57
2018-07-31T11:18:19.263Z,34.42
2018-07-31T11:19:19.248Z,34.35
2018-07-31T11:20:19.111Z,34.21
2018-07-31T11:21:19.259Z,34.05
2018-07-31T11:22:19.222Z,34.03
2018-07-31T11:23:19.192Z,33.99
2018-07-31T11:24:19.176Z,34.01
2018-07-31T11:25:19.183Z,33.99
2018-07-31T11:26:19.208Z,34.02
2018-07-31T11:27:19.117Z,33.99
2018-07-31T11:28:19.182Z,33.91
2018-07-31T11:29:19.206Z,33.85
2018-07-31T11:30:19.203Z,33.80
2018-07-31T11:31:19.129Z,33.85
2018-07-31T11:32:19.134Z,33.74
2018-07-31T11:33:19.111Z,33.62
2018-07-31T11:34:19.156Z,33.65
2018-07-31T11:35:19.205Z,33.57
2018-07-31T11:36:19.117Z,33.52
2018-07-31T11:37:19.113Z,33.40
2018-07-31T11:38:19.203Z,33.36
2018-07-31T11:39:19.208Z,33.43
2018-07-31T11:40:19.251Z,33.54
2018-07-31T11:41:19.211Z,33.77
2018-07-31T11:42:19.250Z,34.13
2018-07-31T11:43:19.168Z,34.49
2018-07-31T11:44:19.172Z,34.90
2018-07-31T11:45:19.214Z,35.11
2018-07-31T11:46:19.163Z,35.16
2018-07-31T11:47:19.193Z,35.30
2018-07-31T11:48:19.201Z,35.45
2018-07-31T11:49:19.262Z,35.63
2018-07-31T11:50:19.269Z,35.90
2018-07-31T11:51:19.200Z,36.13
2018-07-31T11:52:19.270Z,36.40
2018-07-31T11:53:19.201Z,36.66
2018-07-31T11:54:19.207Z,36.54
2018-07-31T11:55:19.206Z,36.19
2018-07-31T11:56:19.292Z,36.08
2018-07-31T11:57:19.205Z,36.10
2018-07-31T11:58:19.272Z,36.12
2018-07-31T11:59:19.321Z,36.18
2018-07-31T12:00:19.319Z,36.17
2018-07-31T12:01:19.280Z,35.74
2018-07-31T12:02:19.316Z,35.57
2018-07-31T12:03:19.313Z,35.44
2018-07-31T12:04:19.310Z,35.50
2018-07-31T12:05:19.258Z,35.64
2018-07-31T12:06:19.325Z,35.75
2018-07-31T12:07:19.280Z,35.81
2018-07-31T12:08:19.319Z,35.84
2018-07-31T12:09:19.303Z,35.70
2018-07-31T12:10:19.281Z,35.52
2018-07-31T12:11:19.287Z,35.57
2018-07-31T12:12:19.286Z,35.55
2018-07-31T12:13:19.285Z,35.15
2018-07-31T12:14:19.284Z,34.87
2018-07-31T12:15:19.220Z,34.71
2018-07-31T12:16:19.288Z,34.75
2018-07-31T12:17:19.222Z,34.82
2018-07-31T12:18:19.221Z,34.71
2018-07-31T12:19:19.315Z,34.54
2018-07-31T12:20:19.286Z,34.25
2018-07-31T12:21:19.226Z,34.14
2018-07-31T12:22:19.174Z,34.13
2018-07-31T12:23:19.295Z,34.05
2018-07-31T12:24:19.225Z,34.06
2018-07-31T12:25:19.294Z,34.05
2018-07-31T12:26:19.230Z,34.03
2018-07-31T12:27:19.292Z,34.12
2018-07-31T12:28:19.235Z,34.25
2018-07-31T12:29:19.320Z,34.39
2018-07-31T12:30:19.201Z,34.41
2018-07-31T12:31:19.296Z,34.59
2018-07-31T12:32:19.235Z,34.84
2018-07-31T12:33:19.290Z,35.05
2018-07-31T12:34:19.202Z,35.15
2018-07-31T12:35:19.241Z,35.26
2018-07-31T12:36:19.237Z,35.31
2018-07-31T12:37:19.187Z,35.49
2018-07-31T12:38:19.239Z,35.73
2018-07-31T12:39:19.234Z,35.90
2018-07-31T12:40:19.302Z,36.28
2018-07-31T12:41:19.235Z,36.35
2018-07-31T12:42:19.306Z,36.22
2018-07-31T12:43:19.240Z,35.97
2018-07-31T12:44:19.240Z,35.86
2018-07-31T12:45:19.305Z,35.59
2018-07-31T12:46:19.245Z,35.39
2018-07-31T12:47:19.202Z,35.33
2018-07-31T12:48:19.266Z,35.28
2018-07-31T12:49:19.308Z,35.16
2018-07-31T12:50:19.331Z,35.04
2018-07-31T12:51:19.213Z,34.91
2018-07-31T12:52:19.291Z,34.63
2018-07-31T12:53:19.326Z,34.54
2018-07-31T12:54:19.340Z,34.57